< < Back
Terminal Aerodrome Forecast


Current Version              Previous Versions:   1  2  3  4  5  6  7  8  9  

Terminal Aerodrome Forecast

858
FTUS42 KFFC 222300
TAFCSG
TAF
KCSG 222323Z 2300/2324 02004KT P6SM SKC
     FM230200 00000KT P6SM SKC
     FM231600 04004KT P6SM SKC=



Latest METAR

054
SAUS70 KWBC 231354
MTRCSG
METAR KCSG 231351Z 09006KT 10SM CLR 12/06 A3015 RMK AO2 SLP208
T01220061


USA.gov is the U.S. government's official web portal to all federal, state and local government web resources and services.